Time;durP1;ratioP1;P1;durP2;ratioP2;P2;SDS_P1;SDS_P2;PMS_P1;PMS_P2;Temp;Humidity;BMP_temperature;BMP_pressure;BME280_temperature;BME280_humidity;BME280_pressure;Samples;Min_cycle;Max_cycle;Signal;HPM_P1;HPM_P2
2023/10/10 00:00:02;;;;;;;5.97;2.70;;;;;;;13.94;100.00;101347.72;6123178;28;20032;-64
2023/10/10 00:02:58;;;;;;;6.97;2.55;;;;;;;13.94;100.00;101358.38;6127190;28;20040;-65
2023/10/10 00:05:55;;;;;;;8.95;2.45;;;;;;;13.92;100.00;101359.53;6119680;28;20021;-65
2023/10/10 00:08:50;;;;;;;7.32;2.50;;;;;;;13.93;100.00;101359.38;6126620;28;20471;-64
2023/10/10 00:11:45;;;;;;;7.65;2.80;;;;;;;13.87;100.00;101365.31;6127015;28;20043;-65
2023/10/10 00:14:42;;;;;;;7.33;2.13;;;;;;;13.90;100.00;101364.19;6123296;28;20036;-65
2023/10/10 00:17:38;;;;;;;7.68;2.25;;;;;;;13.81;100.00;101363.25;6136487;28;20422;-64
2023/10/10 00:20:41;;;;;;;6.27;2.00;;;;;;;13.90;100.00;101374.84;6134147;28;20032;-64
2023/10/10 00:23:47;;;;;;;6.57;2.40;;;;;;;13.72;100.00;101348.19;6134686;28;20315;-64
2023/10/10 00:26:45;;;;;;;5.07;1.83;;;;;;;13.83;100.00;101366.63;6135213;28;20313;-64
2023/10/10 00:29:43;;;;;;;5.82;2.00;;;;;;;13.81;100.00;101367.75;6135194;28;20472;-65
2023/10/10 00:32:45;;;;;;;6.63;1.90;;;;;;;13.83;100.00;101361.28;6128865;28;20054;-64
2023/10/10 00:35:40;;;;;;;8.63;3.00;;;;;;;13.81;100.00;101351.75;6130798;28;20043;-65
2023/10/10 00:38:36;;;;;;;8.23;2.50;;;;;;;13.72;100.00;101338.34;6135883;28;20032;-64
2023/10/10 00:41:32;;;;;;;11.18;2.67;;;;;;;13.78;100.00;101352.06;6131451;28;20525;-65
2023/10/10 00:44:27;;;;;;;6.63;2.65;;;;;;;13.72;100.00;101332.19;6128244;28;20106;-65
2023/10/10 00:47:25;;;;;;;5.65;2.08;;;;;;;13.75;100.00;101339.88;6138201;28;20040;-65
2023/10/10 00:50:25;;;;;;;6.38;2.65;;;;;;;13.66;100.00;101325.63;6132257;28;20082;-66
2023/10/10 00:53:22;;;;;;;5.97;2.00;;;;;;;13.70;100.00;101339.47;6096644;28;20074;-64
2023/10/10 00:56:18;;;;;;;6.68;2.20;;;;;;;13.68;100.00;101322.81;6108542;28;20025;-65
2023/10/10 00:59:16;;;;;;;5.57;2.33;;;;;;;13.70;100.00;101323.47;6112350;28;20046;-65
2023/10/10 01:02:14;;;;;;;7.45;2.67;;;;;;;13.75;100.00;101331.88;6122734;28;20042;-65
2023/10/10 01:05:12;;;;;;;6.80;2.55;;;;;;;13.67;100.00;101316.63;6122059;28;20043;-65
2023/10/10 01:08:07;;;;;;;7.78;2.55;;;;;;;13.73;100.00;101326.69;6121910;28;20134;-64
2023/10/10 01:11:05;;;;;;;8.10;2.35;;;;;;;13.78;100.00;101336.06;6131138;28;20480;-64
2023/10/10 01:14:00;;;;;;;6.20;2.63;;;;;;;13.66;100.00;101317.63;6130762;28;20040;-64
2023/10/10 01:16:57;;;;;;;11.17;2.60;;;;;;;13.70;100.00;101312.81;6127166;28;20040;-64
2023/10/10 01:19:53;;;;;;;7.72;2.60;;;;;;;13.63;100.00;101309.09;6123875;28;20029;-64
2023/10/10 01:22:48;;;;;;;5.47;2.33;;;;;;;13.74;100.00;101332.88;6125578;28;20078;-65
2023/10/10 01:25:45;;;;;;;8.13;2.58;;;;;;;13.73;100.00;101337.34;6124163;28;20449;-63
2023/10/10 01:28:41;;;;;;;8.10;3.33;;;;;;;13.73;100.00;101331.19;6134838;28;20468;-64
2023/10/10 01:31:36;;;;;;;6.20;2.33;;;;;;;13.69;100.00;101330.66;6125089;28;20054;-64
2023/10/10 01:34:39;;;;;;;7.50;2.40;;;;;;;13.66;100.00;101328.28;6129467;28;20036;-65
2023/10/10 01:37:40;;;;;;;6.05;2.38;;;;;;;13.70;100.00;101320.81;6125559;28;20029;-65
2023/10/10 01:40:37;;;;;;;4.15;2.10;;;;;;;13.73;100.00;101323.19;6127380;28;20079;-64
2023/10/10 01:43:33;;;;;;;6.32;2.40;;;;;;;13.64;100.00;101308.13;6114376;28;20036;-65
2023/10/10 01:46:28;;;;;;;7.00;2.75;;;;;;;13.68;100.00;101325.47;6131195;28;20039;-65
2023/10/10 01:49:29;;;;;;;6.73;2.33;;;;;;;13.68;100.00;101323.66;6119003;28;20475;-65
2023/10/10 01:52:25;;;;;;;5.28;2.30;;;;;;;13.60;100.00;101312.06;6117946;28;20552;-64
2023/10/10 01:55:24;;;;;;;7.00;2.50;;;;;;;13.61;100.00;101308.41;6120249;28;20032;-65
2023/10/10 01:58:20;;;;;;;7.13;2.33;;;;;;;13.61;100.00;101311.09;6100597;28;20047;-66
2023/10/10 02:01:19;;;;;;;5.80;2.25;;;;;;;13.60;100.00;101307.56;6120681;28;20567;-64
2023/10/10 02:04:14;;;;;;;9.40;2.63;;;;;;;13.51;100.00;101303.13;6128023;28;20050;-64
2023/10/10 02:07:45;;;;;;;5.37;2.47;;;;;;;13.54;100.00;101312.66;6122580;28;20040;-64
2023/10/10 02:10:32;;;;;;;5.65;2.03;;;;;;;13.51;100.00;101310.28;6121427;28;20032;-64
2023/10/10 02:13:33;;;;;;;9.10;2.45;;;;;;;13.43;100.00;101300.38;6124945;28;20493;-65
2023/10/10 02:16:35;;;;;;;9.10;2.65;;;;;;;13.38;100.00;101288.50;6114424;28;20036;-65
2023/10/10 02:19:38;;;;;;;11.32;2.38;;;;;;;13.39;100.00;101299.03;6123828;28;20048;-65
2023/10/10 02:22:47;;;;;;;8.13;3.20;;;;;;;13.33;100.00;101299.63;6122165;28;20040;-65
2023/10/10 02:25:46;;;;;;;5.57;2.38;;;;;;;13.29;100.00;101297.41;6117723;28;20044;-66
2023/10/10 02:28:43;;;;;;;7.75;2.70;;;;;;;13.19;100.00;101285.94;6128907;28;20403;-66
2023/10/10 02:31:41;;;;;;;5.68;2.72;;;;;;;13.20;100.00;101296.47;6122449;28;20028;-65
2023/10/10 02:34:37;;;;;;;5.05;2.38;;;;;;;13.23;100.00;101312.16;6124147;28;20086;-65
2023/10/10 02:37:45;;;;;;;13.88;2.80;;;;;;;13.20;100.00;101306.28;6125975;28;20502;-65
2023/10/10 02:40:43;;;;;;;8.68;2.55;;;;;;;13.27;100.00;101312.69;6120077;28;20106;-65
2023/10/10 02:43:55;;;;;;;6.82;2.35;;;;;;;13.30;100.00;101315.88;6127010;28;20037;-65
2023/10/10 02:46:53;;;;;;;9.18;2.75;;;;;;;13.36;100.00;101328.63;6123166;28;20031;-65
2023/10/10 02:49:48;;;;;;;8.85;3.08;;;;;;;13.39;100.00;101322.16;6119057;28;20016;-66
2023/10/10 02:52:46;;;;;;;8.73;3.50;;;;;;;13.37;100.00;101316.16;6123321;28;20093;-65
2023/10/10 02:55:50;;;;;;;10.48;2.40;;;;;;;13.35;100.00;101315.44;6127240;28;20042;-66
2023/10/10 02:58:48;;;;;;;4.85;3.17;;;;;;;13.47;100.00;101324.91;6117550;28;20048;-65
2023/10/10 03:02:09;;;;;;;7.35;2.35;;;;;;;13.51;100.00;101328.94;6123398;28;20124;-66
2023/10/10 03:07:59;;;;;;;7.47;2.38;;;;;;;13.46;100.00;101320.56;6121944;28;20020;-65
2023/10/10 03:10:55;;;;;;;8.97;1.93;;;;;;;13.51;100.00;101324.44;6124219;28;20471;-65
2023/10/10 03:13:57;;;;;;;8.93;2.60;;;;;;;13.46;100.00;101320.56;6119571;28;20032;-65
2023/10/10 03:17:22;;;;;;;7.28;2.45;;;;;;;13.55;100.00;101336.50;6120362;28;20106;-64
2023/10/10 03:23:34;;;;;;;6.95;1.90;;;;;;;13.53;100.00;101319.00;6123300;28;20035;-65
2023/10/10 03:29:46;;;;;;;5.95;1.70;;;;;;;13.59;100.00;101321.03;6126189;28;20036;-65
2023/10/10 03:33:07;;;;;;;5.40;2.08;;;;;;;13.65;100.00;101323.09;6121425;28;20590;-65
2023/10/10 05:25:50;;;;;;;9.10;2.38;;;;;;;13.69;100.00;101300.50;6118356;28;20032;-65
2023/10/10 05:28:46;;;;;;;6.43;2.67;;;;;;;13.50;100.00;101279.31;6121529;28;20719;-66
2023/10/10 05:31:44;;;;;;;5.18;2.42;;;;;;;13.66;100.00;101295.47;6126096;28;20025;-67
2023/10/10 05:34:40;;;;;;;8.23;2.92;;;;;;;13.71;100.00;101303.84;6126713;28;20054;-66
2023/10/10 05:37:36;;;;;;;5.25;2.72;;;;;;;13.71;100.00;101298.50;6128071;28;20472;-66
2023/10/10 05:40:33;;;;;;;7.78;2.75;;;;;;;13.78;100.00;101310.22;6123978;28;20032;-66
2023/10/10 05:43:33;;;;;;;6.13;2.30;;;;;;;13.76;100.00;101308.72;6128193;28;20407;-66
2023/10/10 05:46:30;;;;;;;;;;;;;;;13.82;100.00;101319.63;6122533;28;20106;-65
2023/10/10 05:49:27;;;;;;;4.53;2.40;;;;;;;13.86;100.00;101320.97;6120543;28;20007;-66
2023/10/10 05:52:22;;;;;;;4.72;2.10;;;;;;;13.79;100.00;101303.91;6124946;28;20068;-66
2023/10/10 05:55:18;;;;;;;6.20;2.57;;;;;;;13.90;100.00;101325.03;6135830;28;20540;-66
2023/10/10 05:58:15;;;;;;;6.60;2.43;;;;;;;13.91;100.00;101315.19;6131508;28;20047;-66
2023/10/10 06:01:14;;;;;;;6.13;2.30;;;;;;;13.92;100.00;101323.03;6127698;28;20027;-66
2023/10/10 06:04:11;;;;;;;5.53;2.50;;;;;;;13.95;100.00;101316.56;6129316;28;20032;-67
2023/10/10 06:07:07;;;;;;;5.45;2.20;;;;;;;13.95;100.00;101328.06;6128251;28;20219;-66
2023/10/10 06:10:06;;;;;;;6.10;2.97;;;;;;;13.94;100.00;101313.03;6129680;28;20094;-66
2023/10/10 06:13:04;;;;;;;5.43;1.80;;;;;;;13.97;100.00;101326.06;6128963;28;20128;-66
2023/10/10 06:16:06;;;;;;;4.75;2.60;;;;;;;14.03;100.00;101333.47;6130951;28;20028;-67
2023/10/10 06:19:01;;;;;;;4.20;1.60;;;;;;;14.08;100.00;101333.84;6122856;28;20036;-66
2023/10/10 06:22:02;;;;;;;6.18;1.70;;;;;;;14.13;100.00;101330.75;6131364;28;20032;-66
2023/10/10 06:24:58;;;;;;;5.93;1.80;;;;;;;14.09;100.00;101329.34;6127321;28;20552;-67
2023/10/10 06:27:54;;;;;;;3.88;1.45;;;;;;;14.03;100.00;101319.28;6128117;28;20071;-66
2023/10/10 06:30:52;;;;;;;4.00;1.90;;;;;;;14.16;100.00;101331.25;6122904;28;20383;-66
2023/10/10 06:33:52;;;;;;;6.53;1.50;;;;;;;14.17;100.00;101329.44;6129780;28;20582;-67
2023/10/10 06:36:51;;;;;;;5.07;1.60;;;;;;;14.20;100.00;101327.28;6131097;28;20082;-66
2023/10/10 06:39:55;;;;;;;2.67;1.20;;;;;;;14.29;100.00;101331.69;6122065;28;20033;-67
2023/10/10 06:42:56;;;;;;;5.32;1.63;;;;;;;14.45;100.00;101330.19;6125902;28;20127;-66
2023/10/10 06:45:57;;;;;;;3.83;1.60;;;;;;;14.48;100.00;101337.88;6129735;28;20070;-66
2023/10/10 06:49:04;;;;;;;4.25;1.25;;;;;;;14.52;100.00;101336.56;6125083;28;20039;-65
2023/10/10 06:52:00;;;;;;;4.47;1.40;;;;;;;14.59;100.00;101342.97;6129221;28;21155;-66
2023/10/10 06:54:56;;;;;;;6.25;1.63;;;;;;;14.54;100.00;101335.41;6127368;28;20112;-66
2023/10/10 06:57:59;;;;;;;2.38;1.38;;;;;;;14.66;100.00;101344.00;6129594;28;20028;-66
2023/10/10 07:01:04;;;;;;;1.98;1.08;;;;;;;14.64;100.00;101332.66;6120758;28;20025;-65
2023/10/10 07:04:04;;;;;;;4.32;1.50;;;;;;;14.68;100.00;101334.00;6126895;28;20081;-66
2023/10/10 07:07:05;;;;;;;3.58;1.33;;;;;;;14.77;100.00;101341.06;6126948;28;20028;-66
2023/10/10 07:10:09;;;;;;;4.40;1.85;;;;;;;14.91;100.00;101332.47;6121746;28;20383;-66
2023/10/10 07:13:10;;;;;;;3.72;1.65;;;;;;;15.04;100.00;101343.56;6127090;28;20086;-66
2023/10/10 07:16:08;;;;;;;5.70;1.88;;;;;;;15.04;100.00;101330.22;6121345;28;20399;-67
2023/10/10 07:19:19;;;;;;;4.35;1.60;;;;;;;15.21;100.00;101339.13;6127113;28;20036;-66
2023/10/10 07:22:14;;;;;;;5.95;1.58;;;;;;;15.37;100.00;101345.38;6126279;28;20463;-66
2023/10/10 07:25:18;;;;;;;4.30;1.57;;;;;;;15.54;100.00;101340.97;6125899;28;20032;-66
2023/10/10 07:28:14;;;;;;;3.72;1.52;;;;;;;15.46;100.00;101328.38;6129902;28;20036;-67
2023/10/10 07:31:11;;;;;;;5.13;1.65;;;;;;;15.52;100.00;101347.47;6134112;28;20036;-66
2023/10/10 07:34:15;;;;;;;5.40;1.88;;;;;;;15.34;100.00;101329.66;6131550;28;20116;-67
2023/10/10 07:37:14;;;;;;;3.80;1.88;;;;;;;15.34;100.00;101340.38;6119718;28;20127;-66
2023/10/10 07:43:12;;;;;;;4.28;1.70;;;;;;;15.38;100.00;101328.34;6129768;28;20048;-66
2023/10/10 07:46:19;;;;;;;7.50;2.70;;;;;;;15.57;100.00;101340.66;6138335;28;20493;-66
2023/10/10 07:49:16;;;;;;;4.13;1.48;;;;;;;15.66;100.00;101322.75;6111693;28;20116;-65
2023/10/10 07:52:16;;;;;;;4.93;1.98;;;;;;;15.84;100.00;101337.69;6131980;28;20032;-66
2023/10/10 07:55:15;;;;;;;3.33;1.80;;;;;;;16.03;100.00;101325.84;6126614;28;20044;-67
2023/10/10 07:58:13;;;;;;;4.82;1.63;;;;;;;16.16;100.00;101318.16;6124884;28;20106;-67
2023/10/10 08:01:10;;;;;;;3.65;1.73;;;;;;;16.23;100.00;101327.16;6124855;28;20059;-66
2023/10/10 08:04:07;;;;;;;5.45;1.90;;;;;;;16.29;100.00;101337.22;6125422;28;20123;-66
2023/10/10 08:07:03;;;;;;;3.30;1.67;;;;;;;16.23;100.00;101335.19;6124951;28;20386;-66
2023/10/10 08:10:29;;;;;;;5.25;2.00;;;;;;;16.28;100.00;101332.84;6134055;28;20131;-66
2023/10/10 08:13:28;;;;;;;4.85;1.95;;;;;;;16.31;100.00;101335.19;6132674;28;20099;-67
2023/10/10 08:16:29;;;;;;;4.55;2.40;;;;;;;16.15;100.00;101316.47;6125400;28;20025;-66
2023/10/10 08:19:33;;;;;;;5.90;1.92;;;;;;;16.28;100.00;101321.34;6133532;28;20439;-66
2023/10/10 08:22:28;;;;;;;4.13;2.10;;;;;;;16.45;100.00;101331.84;6128226;28;20036;-67
2023/10/10 08:25:23;;;;;;;7.97;2.43;;;;;;;16.39;100.00;101302.22;6138146;28;20467;-67
2023/10/10 08:28:21;;;;;;;8.17;3.00;;;;;;;16.51;100.00;101320.47;6130567;28;20064;-67
2023/10/10 08:31:16;;;;;;;6.32;3.10;;;;;;;16.51;100.00;101330.34;6129785;28;20024;-66
2023/10/10 08:34:13;;;;;;;5.57;2.95;;;;;;;16.55;100.00;101327.19;6126116;28;20074;-66
2023/10/10 08:37:09;;;;;;;5.60;2.55;;;;;;;16.70;100.00;101334.53;6122702;28;20038;-66
2023/10/10 08:40:17;;;;;;;6.00;3.15;;;;;;;17.04;100.00;101324.41;6132017;28;21314;-66
2023/10/10 08:43:12;;;;;;;8.40;2.80;;;;;;;17.52;100.00;101332.22;6124865;28;20440;-65
2023/10/10 08:46:09;;;;;;;7.93;3.17;;;;;;;17.79;100.00;101342.50;6128206;28;20029;-67
2023/10/10 08:49:05;;;;;;;8.05;3.25;;;;;;;17.95;100.00;101338.00;6106228;28;20049;-67
2023/10/10 08:52:01;;;;;;;9.20;3.08;;;;;;;18.22;100.00;101335.63;6128764;28;20613;-67
2023/10/10 08:54:58;;;;;;;5.63;2.95;;;;;;;18.22;100.00;101329.41;6135561;28;20483;-66
2023/10/10 08:57:57;;;;;;;8.55;3.50;;;;;;;18.07;100.00;101317.81;6128136;28;20123;-67
2023/10/10 09:00:53;;;;;;;5.43;2.90;;;;;;;17.97;100.00;101315.34;6105495;28;20056;-67
2023/10/10 09:03:50;;;;;;;8.68;3.65;;;;;;;17.81;100.00;101332.41;6124724;28;20063;-66
2023/10/10 09:10:04;;;;;;;8.48;3.45;;;;;;;17.91;100.00;101326.00;6112099;28;20037;-66
2023/10/10 09:13:04;;;;;;;6.95;3.22;;;;;;;17.76;100.00;101323.22;6133789;28;20040;-67
2023/10/10 09:16:00;;;;;;;8.23;3.00;;;;;;;17.77;100.00;101328.41;6133508;28;20036;-66
2023/10/10 09:19:08;;;;;;;5.78;2.85;;;;;;;17.81;100.00;101335.09;6133610;28;20111;-65
2023/10/10 09:22:12;;;;;;;5.90;2.80;;;;;;;17.93;100.00;101335.53;6129595;28;20036;-67
2023/10/10 09:25:25;;;;;;;7.22;3.08;;;;;;;18.12;100.00;101323.47;6138904;28;20067;-67
2023/10/10 09:28:20;;;;;;;6.03;3.03;;;;;;;18.46;100.00;101334.56;6129809;28;20074;-67
2023/10/10 09:31:26;;;;;;;9.13;3.22;;;;;;;18.30;100.00;101332.03;6124858;28;20067;-65
2023/10/10 09:34:28;;;;;;;9.15;3.42;;;;;;;18.21;100.00;101327.75;6124314;28;20024;-67
2023/10/10 09:37:30;;;;;;;6.50;2.90;;;;;;;18.13;100.00;101346.59;6128406;28;20037;-66
2023/10/10 09:40:25;;;;;;;9.70;3.67;;;;;;;17.85;100.00;101331.03;6123478;28;20464;-67
2023/10/10 09:43:35;;;;;;;7.17;3.50;;;;;;;17.79;100.00;101328.22;6127169;28;20055;-66
2023/10/10 09:46:53;;;;;;;9.75;3.70;;;;;;;17.93;100.00;101327.47;6131722;28;20028;-67
2023/10/10 09:52:58;;;;;;;8.50;3.75;;;;;;;18.24;100.00;101322.00;6102723;28;20064;-67
2023/10/10 09:55:54;;;;;;;10.45;3.67;;;;;;;18.33;100.00;101323.63;6131445;28;20032;-65
2023/10/10 09:58:53;;;;;;;9.60;3.17;;;;;;;18.14;100.00;101329.47;6126490;28;20050;-67
2023/10/10 10:01:48;;;;;;;6.85;3.40;;;;;;;18.14;100.00;101329.47;6104472;28;20059;-66
2023/10/10 10:04:44;;;;;;;12.77;3.07;;;;;;;18.12;100.00;101334.22;6128406;28;20410;-64
2023/10/10 10:07:59;;;;;;;7.05;3.10;;;;;;;17.94;100.00;101341.72;6104553;28;20036;-67
2023/10/10 10:11:09;;;;;;;10.93;4.28;;;;;;;18.14;100.00;101327.66;6125419;28;20068;-66
2023/10/10 10:14:12;;;;;;;7.43;3.67;;;;;;;18.50;100.00;101322.50;6105376;28;20399;-66
2023/10/10 10:17:18;;;;;;;6.88;3.22;;;;;;;18.79;100.00;101322.53;6125847;28;20035;-66
2023/10/10 10:20:34;;;;;;;9.50;3.25;;;;;;;19.09;100.00;101341.34;6103962;28;20042;-67
2023/10/10 10:23:33;;;;;;;7.10;3.95;;;;;;;18.98;100.00;101332.72;6125158;28;20032;-67
2023/10/10 10:26:33;;;;;;;9.05;3.75;;;;;;;18.96;100.00;101333.94;6130895;28;20585;-67
2023/10/10 10:29:36;;;;;;;10.10;3.95;;;;;;;18.58;100.00;101325.09;6125049;28;20029;-66
2023/10/10 10:32:35;;;;;;;7.25;3.95;;;;;;;18.52;100.00;101339.25;6131490;28;20036;-67
2023/10/10 10:35:56;;;;;;;7.22;3.65;;;;;;;18.33;100.00;101332.50;6129264;28;20031;-67
2023/10/10 10:42:11;;;;;;;7.60;3.35;;;;;;;18.25;100.00;101329.06;6101921;28;20036;-67
2023/10/10 10:45:34;;;;;;;7.28;3.17;;;;;;;18.37;100.00;101333.00;6125846;28;20055;-67
2023/10/10 10:48:29;;;;;;;6.50;3.15;;;;;;;18.24;100.00;101305.91;6132496;28;20029;-67
2023/10/10 10:51:40;;;;;;;7.68;3.72;;;;;;;18.59;100.00;101312.50;6125249;28;20551;-66
2023/10/10 10:54:36;;;;;;;8.93;3.60;;;;;;;18.97;100.00;101304.16;6135273;28;20527;-66
2023/10/10 10:57:37;;;;;;;9.15;3.83;;;;;;;18.96;100.00;101302.53;6133048;28;20032;-67
2023/10/10 11:00:56;;;;;;;10.32;3.63;;;;;;;19.22;100.00;101306.56;6129488;28;20036;-66
2023/10/10 11:03:58;;;;;;;9.05;4.50;;;;;;;19.24;100.00;101296.47;6121918;28;20040;-67
2023/10/10 11:07:03;;;;;;;7.80;3.40;;;;;;;19.24;100.00;101283.81;6123341;28;20395;-66
2023/10/10 11:10:08;;;;;;;7.05;3.67;;;;;;;19.49;100.00;101290.59;6130459;28;20115;-66
2023/10/10 11:13:08;;;;;;;9.63;3.85;;;;;;;19.22;100.00;101283.19;6125370;28;20506;-65
2023/10/10 11:16:10;;;;;;;8.75;3.92;;;;;;;19.30;100.00;101269.63;6117796;28;20051;-66
2023/10/10 11:25:41;;;;;;;8.88;4.55;;;;;;;19.92;100.00;101261.81;6122716;28;20040;-67
2023/10/10 11:28:37;;;;;;;8.90;3.90;;;;;;;20.48;100.00;101278.06;6129337;28;20037;-66
2023/10/10 11:31:34;;;;;;;10.43;4.97;;;;;;;20.88;100.00;101271.03;6120792;28;20054;-67
2023/10/10 11:34:42;;;;;;;10.95;5.30;;;;;;;21.17;96.95;101257.34;6123982;28;20032;-66
2023/10/10 11:37:42;;;;;;;11.43;4.93;;;;;;;21.20;92.99;101263.13;6125892;28;20036;-67
2023/10/10 11:40:38;;;;;;;12.52;5.57;;;;;;;20.90;93.18;101259.03;6129482;28;20063;-67
2023/10/10 11:43:37;;;;;;;10.68;5.47;;;;;;;20.25;98.93;101240.59;6124096;28;20932;-67
2023/10/10 11:46:33;;;;;;;9.60;5.22;;;;;;;20.53;98.67;101240.56;6122113;28;20099;-67
2023/10/10 11:49:28;;;;;;;9.80;5.45;;;;;;;20.19;100.00;101231.38;6102186;28;20032;-67
2023/10/10 11:52:27;;;;;;;9.88;5.20;;;;;;;20.48;100.00;101240.34;6130788;28;20028;-67
2023/10/10 11:55:26;;;;;;;9.73;5.22;;;;;;;20.31;100.00;101220.09;6135792;28;20064;-67
2023/10/10 11:58:35;;;;;;;9.75;5.55;;;;;;;20.41;98.15;101234.09;6125342;28;20032;-66
2023/10/10 12:04:45;;;;;;;9.68;4.45;;;;;;;21.10;92.13;101218.69;6119573;28;20032;-67
2023/10/10 12:07:43;;;;;;;12.20;4.68;;;;;;;21.03;90.03;101218.66;6132068;28;20028;-66
2023/10/10 12:10:47;;;;;;;8.65;4.90;;;;;;;20.98;92.36;101204.91;6130594;28;20033;-67
2023/10/10 12:13:44;;;;;;;9.15;4.55;;;;;;;20.47;98.08;101196.38;6124718;28;20460;-67
2023/10/10 12:16:39;;;;;;;10.73;5.95;;;;;;;19.89;98.84;101191.41;6126843;28;20046;-67
2023/10/10 12:19:37;;;;;;;10.18;4.15;;;;;;;20.02;99.81;101180.72;6125822;28;20475;-67
2023/10/10 12:22:33;;;;;;;9.10;5.03;;;;;;;19.98;100.00;101179.44;6126449;28;20044;-66
2023/10/10 12:25:28;;;;;;;10.40;4.60;;;;;;;19.84;100.00;101169.63;6130252;28;20103;-67
2023/10/10 12:28:25;;;;;;;10.03;4.93;;;;;;;19.63;100.00;101175.84;6128679;28;20275;-67
2023/10/10 12:31:22;;;;;;;7.55;4.45;;;;;;;19.38;100.00;101172.72;6130699;28;20464;-67
2023/10/10 12:34:21;;;;;;;10.52;4.65;;;;;;;19.14;100.00;101174.91;6124891;28;20032;-67
2023/10/10 12:37:16;;;;;;;10.82;4.90;;;;;;;18.96;100.00;101168.09;6124103;28;20032;-69
2023/10/10 12:40:14;;;;;;;9.67;5.80;;;;;;;18.55;100.00;101169.66;6131794;28;20032;-68
2023/10/10 12:43:11;;;;;;;10.02;5.47;;;;;;;18.29;100.00;101158.53;6130164;28;20273;-67
2023/10/10 12:46:09;;;;;;;12.07;6.20;;;;;;;18.12;100.00;101152.50;6129075;28;20486;-68
2023/10/10 12:49:05;;;;;;;8.80;5.47;;;;;;;18.02;100.00;101161.84;6128175;28;20517;-67
2023/10/10 12:52:01;;;;;;;10.37;5.60;;;;;;;17.97;100.00;101153.47;6124320;28;20029;-68
2023/10/10 12:54:57;;;;;;;11.95;6.00;;;;;;;17.99;100.00;101135.38;6138720;28;20032;-68
2023/10/10 12:57:54;;;;;;;10.52;5.55;;;;;;;18.26;100.00;101148.16;6131545;28;20434;-67
2023/10/10 13:00:53;;;;;;;10.77;5.90;;;;;;;18.50;100.00;101128.25;6133645;28;20097;-67
2023/10/10 13:03:49;;;;;;;12.05;6.53;;;;;;;18.90;100.00;101136.59;6126609;28;20055;-67
2023/10/10 13:06:51;;;;;;;10.52;5.43;;;;;;;19.23;100.00;101126.19;6123064;28;20036;-67
2023/10/10 13:09:46;;;;;;;12.50;5.97;;;;;;;19.54;100.00;101096.31;6124779;28;20376;-67
2023/10/10 13:12:51;;;;;;;12.77;5.80;;;;;;;19.92;100.00;101121.81;6128064;28;20028;-67
2023/10/10 13:15:47;;;;;;;11.73;5.32;;;;;;;20.20;100.00;101116.41;6126146;28;20032;-67
2023/10/10 13:18:43;;;;;;;9.55;5.25;;;;;;;20.36;100.00;101101.81;6122957;28;20051;-67
2023/10/10 13:21:39;;;;;;;9.47;4.70;;;;;;;20.55;100.00;101096.50;6126099;28;20071;-66
2023/10/10 13:24:34;;;;;;;9.43;5.57;;;;;;;20.60;100.00;101093.22;6129458;28;20032;-67
2023/10/10 13:27:29;;;;;;;13.23;5.27;;;;;;;20.60;100.00;101104.00;6134183;28;20040;-66
2023/10/10 13:30:24;;;;;;;12.60;5.37;;;;;;;20.40;100.00;101101.22;6131109;28;20078;-67
2023/10/10 13:33:20;;;;;;;12.57;5.40;;;;;;;20.46;100.00;101086.13;6127507;28;20086;-67
2023/10/10 13:36:16;;;;;;;11.43;5.00;;;;;;;20.69;100.00;101089.28;6131504;28;20073;-65
2023/10/10 13:39:15;;;;;;;8.57;5.22;;;;;;;20.76;100.00;101095.56;6105098;28;20285;-67
2023/10/10 13:42:14;;;;;;;10.65;4.78;;;;;;;20.84;100.00;101081.06;6127076;28;20033;-66
2023/10/10 13:45:11;;;;;;;12.95;5.28;;;;;;;20.96;100.00;101074.00;6123728;28;20036;-67
2023/10/10 13:48:08;;;;;;;9.38;4.75;;;;;;;21.14;100.00;101083.22;6133650;28;20031;-67
2023/10/10 13:51:05;;;;;;;11.50;5.32;;;;;;;21.12;100.00;101082.56;6129965;28;20038;-66
2023/10/10 13:54:02;;;;;;;11.63;4.82;;;;;;;21.11;100.00;101070.16;6125746;28;20055;-67
2023/10/10 13:56:57;;;;;;;9.07;5.18;;;;;;;21.02;100.00;101074.03;6129579;28;20024;-67
2023/10/10 13:59:52;;;;;;;9.30;4.20;;;;;;;21.08;100.00;101085.91;6126435;28;20071;-67
2023/10/10 14:02:48;;;;;;;11.70;4.72;;;;;;;21.03;100.00;101083.78;6124852;28;20035;-66
2023/10/10 14:06:00;;;;;;;9.15;4.93;;;;;;;20.77;100.00;101063.00;6129169;28;20040;-67
2023/10/10 14:08:57;;;;;;;8.80;4.28;;;;;;;20.62;100.00;101053.41;6103898;28;20508;-67
2023/10/10 14:12:03;;;;;;;10.75;5.00;;;;;;;20.58;100.00;101050.28;6119986;28;20078;-67
2023/10/10 14:14:58;;;;;;;10.75;4.53;;;;;;;20.62;100.00;101064.19;6122099;28;20059;-66
2023/10/10 14:17:55;;;;;;;8.38;4.40;;;;;;;20.68;100.00;101052.63;6130769;28;20471;-66
2023/10/10 14:20:50;;;;;;;9.07;5.25;;;;;;;20.79;100.00;101057.38;6132909;28;20059;-67
2023/10/10 14:23:46;;;;;;;10.38;4.93;;;;;;;20.77;100.00;101051.38;6133061;28;20070;-66
2023/10/10 14:26:44;;;;;;;8.60;4.30;;;;;;;20.86;100.00;101052.84;6126039;28;20435;-66
2023/10/10 14:29:41;;;;;;;9.05;4.60;;;;;;;20.91;100.00;101049.53;6127893;28;20016;-66
2023/10/10 14:32:41;;;;;;;9.32;4.50;;;;;;;20.86;100.00;101028.59;6131486;28;20076;-66
2023/10/10 14:35:36;;;;;;;10.00;4.55;;;;;;;20.75;100.00;101034.56;6121338;28;20487;-66
2023/10/10 14:38:31;;;;;;;8.83;4.40;;;;;;;20.71;100.00;101039.53;6121269;28;20043;-67
2023/10/10 14:41:34;;;;;;;10.82;4.38;;;;;;;20.68;100.00;101052.63;6129067;28;20024;-67
2023/10/10 14:44:31;;;;;;;8.43;4.00;;;;;;;20.58;100.00;101038.66;6130422;28;20020;-67
2023/10/10 14:47:27;;;;;;;9.10;4.53;;;;;;;20.64;100.00;101043.25;6121282;28;20048;-67
2023/10/10 14:50:23;;;;;;;8.60;4.10;;;;;;;20.62;100.00;101039.94;6122611;28;20044;-67
2023/10/10 14:53:22;;;;;;;8.50;3.65;;;;;;;20.61;100.00;101051.75;6127217;28;20046;-66
2023/10/10 14:56:22;;;;;;;10.13;3.78;;;;;;;20.57;100.00;101045.13;6136904;28;20085;-66
2023/10/10 14:59:20;;;;;;;9.88;3.80;;;;;;;20.77;100.00;101045.97;6127390;28;20079;-68
2023/10/10 15:02:16;;;;;;;7.05;3.75;;;;;;;20.89;100.00;101046.22;6117987;28;20074;-66
2023/10/10 15:05:11;;;;;;;12.40;3.90;;;;;;;20.66;100.00;101030.41;6127453;28;20110;-67
2023/10/10 15:08:07;;;;;;;12.57;3.70;;;;;;;20.64;100.00;101029.78;6125545;28;20041;-66
2023/10/10 15:11:05;;;;;;;10.90;3.80;;;;;;;20.66;100.00;101033.09;6130331;28;20645;-67
2023/10/10 15:14:06;;;;;;;10.20;3.88;;;;;;;20.76;100.00;101033.56;6125733;28;20036;-66
2023/10/10 15:17:04;;;;;;;9.95;4.03;;;;;;;20.69;100.00;101040.78;6125427;28;20041;-67
2023/10/10 15:19:59;;;;;;;9.05;3.40;;;;;;;20.56;100.00;101033.50;6123742;28;20031;-67
2023/10/10 15:22:55;;;;;;;10.07;3.95;;;;;;;20.44;99.90;101040.50;6133509;28;20487;-67
2023/10/10 15:25:54;;;;;;;10.10;4.40;;;;;;;20.33;100.00;101037.56;6133465;28;20047;-67
2023/10/10 15:28:52;;;;;;;10.02;3.72;;;;;;;20.17;100.00;101036.84;6125211;28;20063;-67
2023/10/10 15:31:49;;;;;;;6.60;3.58;;;;;;;20.00;100.00;101026.63;6129008;28;20021;-67
2023/10/10 15:34:46;;;;;;;12.65;3.47;;;;;;;19.86;100.00;101031.09;6123375;28;20078;-66
2023/10/10 15:37:44;;;;;;;11.65;3.83;;;;;;;19.77;100.00;101032.28;6128026;28;20036;-66
2023/10/10 15:40:40;;;;;;;12.02;3.90;;;;;;;19.74;100.00;101039.91;6129557;28;20036;-67
2023/10/10 15:43:35;;;;;;;9.95;3.95;;;;;;;19.72;100.00;101045.50;6131536;28;20040;-66
2023/10/10 15:46:33;;;;;;;7.87;4.00;;;;;;;19.70;100.00;101042.19;6136666;28;20095;-67
2023/10/10 15:49:29;;;;;;;10.98;3.95;;;;;;;19.64;100.00;101032.22;6138772;28;20104;-67
2023/10/10 15:52:24;;;;;;;10.03;4.63;;;;;;;19.70;100.00;101038.66;6132149;28;20058;-67
2023/10/10 15:55:23;;;;;;;8.57;4.25;;;;;;;19.60;100.00;101037.13;6132809;28;20387;-66
2023/10/10 15:58:23;;;;;;;9.98;4.85;;;;;;;19.52;100.00;101031.91;6133451;28;20036;-67
2023/10/10 16:01:27;;;;;;;8.55;4.07;;;;;;;19.39;100.00;101029.13;6125789;28;20029;-66
2023/10/10 16:04:23;;;;;;;9.70;3.97;;;;;;;19.38;100.00;101042.75;6134268;28;20458;-68